Historyczne dane pomiarowe

Dodano dane terminowe – wersja testowa.

Dane z okresu 1951-2019

Wersja bazy: 1.34 [2019-03-16, lista zmian], aktualizacja planowana na 2019-04-15

Dane meteo z obszaru Polski uzyskane na podstawie danych udostępnionych przez Instytut Meteorologii i Gospodarki Wodnej – Państwowy Instytut Badawczy.

 

Wybierz Datę:    

       

TemperaturaWilgotnośćWiatrCiśnienieOpadyŚniegCzas trwania zjawisk
 Stacja t tx tn tng RH VA  wxwx mslp ppp RRR   cm mm wxwxwxwxwxwxwx
1983-08-14 13.6 19.0 8.1 7.2 67.8- 2.3 6.3---- 0.3------------
1983-08-13 14.4 21.2 10.9 10.7 75.8- 7.3 9.0---- 1.4------------
1983-08-12 19.8 25.9 12.4 9.2 63.3- 1.3 5.0---- 7.3------------
1983-08-11 20.3 26.9 13.7 11.1 68.0- 2.3 1.7---- 0.0------------
1983-08-10 20.2 26.4 11.9 11.0 62.3- 0.7 2.3---- 0.0------------
1983-08-09 21.0 26.1 14.9 12.7 65.0- 1.0 1.7---- 0.0------------
1983-08-08 21.1 26.5 15.8 15.4 73.0- 1.7 2.3---- 0.0------------
1983-08-07 18.8 24.5 13.5 11.7 75.8- 6.7 5.7---- 4.7------------
1983-08-06 16.6 22.2 10.9 10.2 74.8- 3.3 1.0---- 0.0------------
1983-08-05 13.7 15.6 11.5 12.2 83.8- 7.3 2.3---- 0.5------------
1983-08-04 15.9 25.8 12.9 15.1 90.0- 8.0 3.0---- 12.5------------
1983-08-03 21.9 27.9 13.5 11.9 55.8- 5.7 6.3---- 15.7------------
1983-08-02 20.6 29.3 12.4 8.7 58.5- 4.0 7.0---- 0.0------------
1983-08-01 20.6 28.2 10.2 8.2 55.0- 0.0 4.0---- 0.0------------
1983-07-31 17.8 25.3 10.4 8.6 67.8- 3.0 1.7---- 0.0------------
1983-07-30 15.7 21.0 11.4 9.9 83.3- 7.3 5.7---- 0.3------------
1983-07-29 18.2 23.6 11.9 8.8 70.8- 5.7 3.0---- 0.6------------
1983-07-28 20.1 26.0 18.3 17.4 75.3- 4.0 5.0---- 0.0------------
1983-07-27 21.4 29.9 10.9 7.9 62.8- 1.0 1.3---- 0.0------------
1983-07-26 20.6 28.4 14.4 13.8 80.5- 4.0 6.3---- 0.0------------
1983-07-25 15.4 18.8 11.1 8.7 85.0- 6.7 4.3---- 1.9------------
1983-07-24 15.0 20.5 10.9 8.2 82.3- 5.7 0.7---- 0.0------------
1983-07-23 15.3 21.5 10.5 10.7 87.3- 5.3 5.0---- 0.0------------
1983-07-22 14.3 20.0 9.1 8.7 77.3- 5.3 7.0---- 2.9------------
1983-07-21 12.1 17.5 7.4 6.0 80.8- 4.0 7.0---- 0.8------------
1983-07-20 12.0 20.2 8.1 6.2 90.0- 6.7 3.0---- 10.3------------
1983-07-19 19.5 25.8 17.0 14.0 78.0- 6.0 3.0---- 7.2------------
1983-07-18 20.3 28.9 8.9 4.3 74.8- 2.7 3.3---- 0.5------------
1983-07-17 17.3 24.5 8.9 3.9 72.8- 2.0 2.0---- 0.0------------
1983-07-16 18.9 27.9 11.3 6.7 79.8- 6.7 6.3---- 0.5------------
1983-07-15 18.5 26.6 8.9 5.2 80.0- 1.3 4.0---- 0.0------------
1983-07-14 19.1 23.4 14.4 15.1 82.0- 4.0 7.7---- 0.0------------
1983-07-13 21.1 28.4 14.4 11.7 75.3- 3.3 1.0---- 0.1------------
1983-07-12 21.5 27.4 16.2 15.6 80.3- 4.0 4.3---- 0.0------------
1983-07-11 21.9 28.4 14.9 12.6 77.5- 6.0 5.0---- 0.7------------
1983-07-10 22.1 29.4 14.1 13.0 72.8- 3.3 6.3---- 0.0------------
1983-07-09 20.8 27.9 12.5 9.7 66.5- 0.7 5.7---- 0.0------------
1983-07-08 18.3 26.3 8.9 5.4 65.5- 1.7 4.7---- 0.0------------
1983-07-07 18.3 24.5 10.9 9.0 59.3- 0.0 3.3---- 0.0------------
1983-07-06 18.8 24.5 10.4 7.7 65.0- 1.0 4.3---- 0.0------------
1983-07-05 16.5 22.5 8.1 6.0 69.5- 1.3 3.7---- 0.0------------
1983-07-04 19.8 24.0 14.5 13.6 63.0- 2.0 4.0---- 0.0------------
1983-07-03 16.5 23.5 5.9 4.7 68.5- 3.3 2.3---- 0.0------------
1983-07-02 15.6 23.6 11.4 12.2 81.0- 6.3 3.7---- 5.6------------
1983-07-01 19.1 25.0 11.4 6.2 62.0- 3.3 3.7---- 13.3------------
1983-06-30 16.3 23.5 8.9 2.3 56.0- 3.0 5.0---- 0.0------------
1983-06-29 13.4 18.6 5.0 0.1 65.5- 2.3 5.7---- 0.0------------
1983-06-28 15.5 20.6 12.9 10.7 79.0- 6.0 3.0---- 2.6------------
1983-06-27 16.8 25.0 8.7 1.3 75.5- 8.0 1.0---- 4.0------------
1983-06-26 16.0 22.8 4.6 -1.3 66.5- 1.0 1.7---- 0.0------------
1983-06-25 18.7 25.9 9.1 2.7 59.3- 3.0 4.0---- 0.4------------
1983-06-24 18.5 26.4 4.4 0.1 44.3- 0.0 5.0---- 0.0------------
1983-06-23 14.3 22.5 3.0 -3.9 47.8- 0.0 2.0---- 0.0------------
1983-06-22 11.8 17.5 3.6 -1.8 55.0- 0.3 3.0---- 0.0------------
1983-06-21 15.1 22.0 8.9 5.0 62.8- 1.3 6.3---- 0.0------------
1983-06-20 18.2 24.0 9.9 6.7 64.0- 0.3 5.0---- 0.0------------
1983-06-19 16.6 21.2 11.9 9.7 78.8- 7.3 7.7---- 0.0------------
1983-06-18 12.8 16.6 10.1 7.2 87.8- 6.7 5.7---- 0.0------------
1983-06-17 14.3 19.0 9.0 7.3 70.5- 4.7 5.7---- 0.0------------
1983-06-16 12.4 15.8 10.9 9.9 85.8- 8.0 11.0---- 0.0------------
332.2 ms

 

Źródłem pochodzenia danych jest Instytut Meteorologii i Gospodarki Wodnej – Państwowy Instytut Badawczy. Dane Instytutu Meteorologii i Gospodarki Wodnej – Państwowego Instytutu Badawczego zostały przetworzone.

Dane źródłowe można odnaleźć na stronie https://dane.imgw.pl